sensor_id;sensor_type;location;lat;lon;timestamp;P1;durP1;ratioP1;P2;durP2;ratioP2
11598;SDS011;5855;48.840;9.188;2024-01-16T00:00:13;3.92;;;2.63;;
11598;SDS011;5855;48.840;9.188;2024-01-16T00:08:34;2.58;;;2.38;;
11598;SDS011;5855;48.840;9.188;2024-01-16T00:11:01;2.88;;;2.50;;
11598;SDS011;5855;48.840;9.188;2024-01-16T00:13:31;4.03;;;2.28;;
11598;SDS011;5855;48.840;9.188;2024-01-16T00:15:59;2.95;;;2.38;;
11598;SDS011;5855;48.840;9.188;2024-01-16T00:18:28;4.18;;;2.70;;
11598;SDS011;5855;48.840;9.188;2024-01-16T00:20:55;3.60;;;2.45;;
11598;SDS011;5855;48.840;9.188;2024-01-16T00:23:22;3.22;;;2.33;;
11598;SDS011;5855;48.840;9.188;2024-01-16T00:25:51;6.70;;;2.85;;
11598;SDS011;5855;48.840;9.188;2024-01-16T00:28:18;3.53;;;2.30;;
11598;SDS011;5855;48.840;9.188;2024-01-16T00:33:37;4.28;;;2.88;;
11598;SDS011;5855;48.840;9.188;2024-01-16T00:36:05;4.22;;;2.08;;
11598;SDS011;5855;48.840;9.188;2024-01-16T00:38:32;4.15;;;2.88;;
11598;SDS011;5855;48.840;9.188;2024-01-16T00:40:59;5.93;;;2.50;;
11598;SDS011;5855;48.840;9.188;2024-01-16T00:43:26;4.03;;;2.78;;
11598;SDS011;5855;48.840;9.188;2024-01-16T00:45:54;4.38;;;2.80;;
11598;SDS011;5855;48.840;9.188;2024-01-16T00:48:22;4.72;;;2.60;;
11598;SDS011;5855;48.840;9.188;2024-01-16T00:50:52;3.83;;;2.92;;
11598;SDS011;5855;48.840;9.188;2024-01-16T00:53:21;3.85;;;2.70;;
11598;SDS011;5855;48.840;9.188;2024-01-16T00:55:47;4.38;;;2.65;;
11598;SDS011;5855;48.840;9.188;2024-01-16T01:01:04;3.08;;;2.60;;
11598;SDS011;5855;48.840;9.188;2024-01-16T01:03:34;5.25;;;2.80;;
11598;SDS011;5855;48.840;9.188;2024-01-16T01:08:49;5.53;;;2.55;;
11598;SDS011;5855;48.840;9.188;2024-01-16T01:14:21;3.78;;;2.70;;
11598;SDS011;5855;48.840;9.188;2024-01-16T01:16:48;3.78;;;3.05;;
11598;SDS011;5855;48.840;9.188;2024-01-16T01:19:19;4.10;;;3.00;;
11598;SDS011;5855;48.840;9.188;2024-01-16T01:24:51;4.10;;;2.80;;
11598;SDS011;5855;48.840;9.188;2024-01-16T01:27:20;6.93;;;2.92;;
11598;SDS011;5855;48.840;9.188;2024-01-16T01:29:47;5.22;;;3.00;;
11598;SDS011;5855;48.840;9.188;2024-01-16T01:32:14;4.07;;;3.20;;
11598;SDS011;5855;48.840;9.188;2024-01-16T01:37:27;4.05;;;3.15;;
11598;SDS011;5855;48.840;9.188;2024-01-16T01:42:41;4.57;;;3.08;;
11598;SDS011;5855;48.840;9.188;2024-01-16T01:47:58;3.85;;;3.20;;
11598;SDS011;5855;48.840;9.188;2024-01-16T01:50:27;4.13;;;3.38;;
11598;SDS011;5855;48.840;9.188;2024-01-16T01:52:54;3.17;;;2.83;;
11598;SDS011;5855;48.840;9.188;2024-01-16T01:55:23;5.88;;;3.00;;
11598;SDS011;5855;48.840;9.188;2024-01-16T01:57:51;3.50;;;2.70;;
11598;SDS011;5855;48.840;9.188;2024-01-16T02:00:21;3.30;;;2.85;;
11598;SDS011;5855;48.840;9.188;2024-01-16T02:02:50;4.18;;;2.92;;
11598;SDS011;5855;48.840;9.188;2024-01-16T02:05:17;4.65;;;3.30;;
11598;SDS011;5855;48.840;9.188;2024-01-16T02:10:33;5.90;;;3.30;;
11598;SDS011;5855;48.840;9.188;2024-01-16T02:15:35;6.25;;;2.90;;
11598;SDS011;5855;48.840;9.188;2024-01-16T02:18:05;5.28;;;3.20;;
11598;SDS011;5855;48.840;9.188;2024-01-16T02:20:32;3.63;;;3.13;;
11598;SDS011;5855;48.840;9.188;2024-01-16T02:25:32;4.03;;;2.88;;
11598;SDS011;5855;48.840;9.188;2024-01-16T02:33:35;3.45;;;2.95;;
11598;SDS011;5855;48.840;9.188;2024-01-16T02:36:02;4.90;;;2.97;;
11598;SDS011;5855;48.840;9.188;2024-01-16T02:38:29;4.65;;;3.30;;
11598;SDS011;5855;48.840;9.188;2024-01-16T02:43:46;5.07;;;3.28;;
11598;SDS011;5855;48.840;9.188;2024-01-16T02:46:15;4.47;;;3.10;;
11598;SDS011;5855;48.840;9.188;2024-01-16T02:48:43;4.72;;;2.95;;
11598;SDS011;5855;48.840;9.188;2024-01-16T02:51:11;6.05;;;3.05;;
11598;SDS011;5855;48.840;9.188;2024-01-16T02:53:38;4.97;;;3.05;;
11598;SDS011;5855;48.840;9.188;2024-01-16T02:56:04;4.60;;;3.05;;
11598;SDS011;5855;48.840;9.188;2024-01-16T02:58:34;5.32;;;3.20;;
11598;SDS011;5855;48.840;9.188;2024-01-16T03:01:02;3.78;;;3.05;;
11598;SDS011;5855;48.840;9.188;2024-01-16T03:03:30;7.22;;;3.08;;
11598;SDS011;5855;48.840;9.188;2024-01-16T03:05:56;5.68;;;3.30;;
11598;SDS011;5855;48.840;9.188;2024-01-16T03:08:24;5.53;;;3.38;;
11598;SDS011;5855;48.840;9.188;2024-01-16T03:10:51;5.57;;;3.13;;
11598;SDS011;5855;48.840;9.188;2024-01-16T03:13:18;3.90;;;3.17;;
11598;SDS011;5855;48.840;9.188;2024-01-16T03:15:46;4.93;;;3.28;;
11598;SDS011;5855;48.840;9.188;2024-01-16T03:18:13;3.47;;;3.17;;
11598;SDS011;5855;48.840;9.188;2024-01-16T03:20:40;5.07;;;3.40;;
11598;SDS011;5855;48.840;9.188;2024-01-16T03:23:07;5.03;;;3.38;;
11598;SDS011;5855;48.840;9.188;2024-01-16T03:25:34;5.53;;;3.42;;
11598;SDS011;5855;48.840;9.188;2024-01-16T03:28:04;4.13;;;3.42;;
11598;SDS011;5855;48.840;9.188;2024-01-16T03:30:33;3.75;;;3.25;;
11598;SDS011;5855;48.840;9.188;2024-01-16T03:33:01;5.78;;;3.42;;
11598;SDS011;5855;48.840;9.188;2024-01-16T03:35:28;5.43;;;3.30;;
11598;SDS011;5855;48.840;9.188;2024-01-16T03:37:54;4.68;;;3.55;;
11598;SDS011;5855;48.840;9.188;2024-01-16T03:40:20;5.13;;;3.70;;
11598;SDS011;5855;48.840;9.188;2024-01-16T03:42:47;6.63;;;3.42;;
11598;SDS011;5855;48.840;9.188;2024-01-16T03:45:14;4.93;;;3.22;;
11598;SDS011;5855;48.840;9.188;2024-01-16T03:47:41;5.40;;;3.47;;
11598;SDS011;5855;48.840;9.188;2024-01-16T03:50:09;4.60;;;3.13;;
11598;SDS011;5855;48.840;9.188;2024-01-16T03:52:36;6.43;;;3.42;;
11598;SDS011;5855;48.840;9.188;2024-01-16T03:55:03;6.05;;;3.00;;
11598;SDS011;5855;48.840;9.188;2024-01-16T03:57:30;4.00;;;3.45;;
11598;SDS011;5855;48.840;9.188;2024-01-16T03:59:57;3.33;;;2.92;;
11598;SDS011;5855;48.840;9.188;2024-01-16T04:02:24;9.02;;;3.70;;
11598;SDS011;5855;48.840;9.188;2024-01-16T04:04:51;6.15;;;3.22;;
11598;SDS011;5855;48.840;9.188;2024-01-16T04:07:19;6.20;;;3.23;;
11598;SDS011;5855;48.840;9.188;2024-01-16T04:09:49;9.27;;;3.65;;
11598;SDS011;5855;48.840;9.188;2024-01-16T04:12:15;6.05;;;3.33;;
11598;SDS011;5855;48.840;9.188;2024-01-16T04:14:43;4.57;;;3.33;;
11598;SDS011;5855;48.840;9.188;2024-01-16T04:17:09;4.47;;;3.03;;
11598;SDS011;5855;48.840;9.188;2024-01-16T04:19:36;5.00;;;3.33;;
11598;SDS011;5855;48.840;9.188;2024-01-16T04:22:04;4.10;;;3.13;;
11598;SDS011;5855;48.840;9.188;2024-01-16T04:24:32;3.33;;;2.97;;
11598;SDS011;5855;48.840;9.188;2024-01-16T04:26:59;4.93;;;3.60;;
11598;SDS011;5855;48.840;9.188;2024-01-16T04:29:26;7.05;;;3.58;;
11598;SDS011;5855;48.840;9.188;2024-01-16T04:31:53;4.20;;;3.40;;
11598;SDS011;5855;48.840;9.188;2024-01-16T04:34:20;6.50;;;3.60;;
11598;SDS011;5855;48.840;9.188;2024-01-16T04:36:47;4.60;;;3.25;;
11598;SDS011;5855;48.840;9.188;2024-01-16T04:39:14;7.28;;;3.75;;
11598;SDS011;5855;48.840;9.188;2024-01-16T04:41:42;5.60;;;3.30;;
11598;SDS011;5855;48.840;9.188;2024-01-16T04:44:09;6.88;;;4.00;;
11598;SDS011;5855;48.840;9.188;2024-01-16T04:46:35;5.90;;;3.47;;
11598;SDS011;5855;48.840;9.188;2024-01-16T04:49:02;5.75;;;3.63;;
11598;SDS011;5855;48.840;9.188;2024-01-16T04:51:29;4.55;;;3.28;;
11598;SDS011;5855;48.840;9.188;2024-01-16T04:53:56;4.95;;;3.50;;
11598;SDS011;5855;48.840;9.188;2024-01-16T04:56:23;3.65;;;2.97;;
11598;SDS011;5855;48.840;9.188;2024-01-16T04:58:51;4.55;;;3.15;;
11598;SDS011;5855;48.840;9.188;2024-01-16T05:01:18;5.75;;;3.47;;
11598;SDS011;5855;48.840;9.188;2024-01-16T05:03:45;5.68;;;3.35;;
11598;SDS011;5855;48.840;9.188;2024-01-16T05:06:12;4.80;;;3.17;;
11598;SDS011;5855;48.840;9.188;2024-01-16T05:08:41;4.38;;;3.50;;
11598;SDS011;5855;48.840;9.188;2024-01-16T05:11:08;5.28;;;3.22;;
11598;SDS011;5855;48.840;9.188;2024-01-16T05:13:35;4.82;;;3.28;;
11598;SDS011;5855;48.840;9.188;2024-01-16T05:16:04;4.15;;;3.30;;
11598;SDS011;5855;48.840;9.188;2024-01-16T05:18:31;5.75;;;3.30;;
11598;SDS011;5855;48.840;9.188;2024-01-16T05:20:58;4.20;;;3.15;;
11598;SDS011;5855;48.840;9.188;2024-01-16T05:23:27;4.45;;;3.45;;
11598;SDS011;5855;48.840;9.188;2024-01-16T05:25:54;4.28;;;3.30;;
11598;SDS011;5855;48.840;9.188;2024-01-16T05:28:20;4.25;;;3.25;;
11598;SDS011;5855;48.840;9.188;2024-01-16T05:30:48;4.55;;;3.30;;
11598;SDS011;5855;48.840;9.188;2024-01-16T05:33:16;3.60;;;3.03;;
11598;SDS011;5855;48.840;9.188;2024-01-16T05:35:43;5.38;;;3.47;;
11598;SDS011;5855;48.840;9.188;2024-01-16T05:38:10;7.05;;;3.35;;
11598;SDS011;5855;48.840;9.188;2024-01-16T05:40:38;4.50;;;3.10;;
11598;SDS011;5855;48.840;9.188;2024-01-16T05:43:05;4.38;;;3.00;;
11598;SDS011;5855;48.840;9.188;2024-01-16T05:45:32;4.15;;;3.17;;
11598;SDS011;5855;48.840;9.188;2024-01-16T05:47:58;3.80;;;3.10;;
11598;SDS011;5855;48.840;9.188;2024-01-16T05:50:27;4.03;;;2.90;;
11598;SDS011;5855;48.840;9.188;2024-01-16T05:52:53;3.95;;;3.00;;
11598;SDS011;5855;48.840;9.188;2024-01-16T05:55:20;5.47;;;3.03;;
11598;SDS011;5855;48.840;9.188;2024-01-16T05:57:47;3.57;;;2.67;;
11598;SDS011;5855;48.840;9.188;2024-01-16T06:00:14;6.10;;;3.45;;
11598;SDS011;5855;48.840;9.188;2024-01-16T06:02:43;3.88;;;3.22;;
11598;SDS011;5855;48.840;9.188;2024-01-16T06:05:09;4.82;;;3.90;;
11598;SDS011;5855;48.840;9.188;2024-01-16T06:07:38;4.28;;;3.10;;
11598;SDS011;5855;48.840;9.188;2024-01-16T06:10:05;5.75;;;3.20;;
11598;SDS011;5855;48.840;9.188;2024-01-16T06:12:33;4.72;;;3.40;;
11598;SDS011;5855;48.840;9.188;2024-01-16T06:15:01;6.27;;;3.53;;
11598;SDS011;5855;48.840;9.188;2024-01-16T06:17:27;4.28;;;3.50;;
11598;SDS011;5855;48.840;9.188;2024-01-16T06:19:54;4.75;;;3.22;;
11598;SDS011;5855;48.840;9.188;2024-01-16T06:22:21;6.88;;;3.83;;
11598;SDS011;5855;48.840;9.188;2024-01-16T06:24:50;5.83;;;3.33;;
11598;SDS011;5855;48.840;9.188;2024-01-16T06:27:16;4.60;;;2.97;;
11598;SDS011;5855;48.840;9.188;2024-01-16T06:29:45;5.68;;;3.60;;
11598;SDS011;5855;48.840;9.188;2024-01-16T06:32:11;4.30;;;3.50;;
11598;SDS011;5855;48.840;9.188;2024-01-16T06:34:39;4.87;;;3.50;;
11598;SDS011;5855;48.840;9.188;2024-01-16T06:37:06;4.80;;;3.20;;
11598;SDS011;5855;48.840;9.188;2024-01-16T06:39:33;5.75;;;3.45;;
11598;SDS011;5855;48.840;9.188;2024-01-16T06:42:15;5.07;;;3.05;;
11598;SDS011;5855;48.840;9.188;2024-01-16T06:44:51;3.58;;;2.75;;
11598;SDS011;5855;48.840;9.188;2024-01-16T06:47:18;5.32;;;2.70;;
11598;SDS011;5855;48.840;9.188;2024-01-16T06:49:45;3.78;;;2.90;;
11598;SDS011;5855;48.840;9.188;2024-01-16T06:52:12;5.57;;;2.92;;
11598;SDS011;5855;48.840;9.188;2024-01-16T06:54:39;4.38;;;2.70;;
11598;SDS011;5855;48.840;9.188;2024-01-16T06:57:07;3.80;;;2.47;;
11598;SDS011;5855;48.840;9.188;2024-01-16T06:59:34;4.60;;;2.67;;
11598;SDS011;5855;48.840;9.188;2024-01-16T07:02:03;4.60;;;2.70;;
11598;SDS011;5855;48.840;9.188;2024-01-16T07:04:31;3.65;;;2.95;;
11598;SDS011;5855;48.840;9.188;2024-01-16T07:06:58;4.18;;;3.10;;
11598;SDS011;5855;48.840;9.188;2024-01-16T07:09:25;5.22;;;2.90;;
11598;SDS011;5855;48.840;9.188;2024-01-16T07:11:52;4.57;;;2.90;;
11598;SDS011;5855;48.840;9.188;2024-01-16T07:14:20;3.27;;;2.67;;
11598;SDS011;5855;48.840;9.188;2024-01-16T07:16:47;3.80;;;2.90;;
11598;SDS011;5855;48.840;9.188;2024-01-16T07:19:14;4.60;;;3.10;;
11598;SDS011;5855;48.840;9.188;2024-01-16T07:21:41;4.83;;;2.77;;
11598;SDS011;5855;48.840;9.188;2024-01-16T07:24:09;3.85;;;2.67;;
11598;SDS011;5855;48.840;9.188;2024-01-16T07:26:37;3.43;;;2.40;;
11598;SDS011;5855;48.840;9.188;2024-01-16T07:29:04;3.67;;;2.37;;
11598;SDS011;5855;48.840;9.188;2024-01-16T07:31:32;4.15;;;2.42;;
11598;SDS011;5855;48.840;9.188;2024-01-16T07:33:59;2.87;;;2.40;;
11598;SDS011;5855;48.840;9.188;2024-01-16T07:36:26;3.37;;;2.70;;
11598;SDS011;5855;48.840;9.188;2024-01-16T07:38:53;4.10;;;2.35;;
11598;SDS011;5855;48.840;9.188;2024-01-16T07:41:19;4.13;;;2.58;;
11598;SDS011;5855;48.840;9.188;2024-01-16T07:43:46;3.50;;;2.45;;
11598;SDS011;5855;48.840;9.188;2024-01-16T07:46:13;3.22;;;2.60;;
11598;SDS011;5855;48.840;9.188;2024-01-16T07:48:42;4.78;;;2.70;;
11598;SDS011;5855;48.840;9.188;2024-01-16T07:51:09;2.67;;;2.30;;
11598;SDS011;5855;48.840;9.188;2024-01-16T07:53:36;5.40;;;2.53;;
11598;SDS011;5855;48.840;9.188;2024-01-16T07:56:03;3.95;;;2.67;;
11598;SDS011;5855;48.840;9.188;2024-01-16T07:58:30;3.60;;;2.30;;
11598;SDS011;5855;48.840;9.188;2024-01-16T08:00:57;2.83;;;2.27;;
11598;SDS011;5855;48.840;9.188;2024-01-16T08:03:24;4.28;;;2.10;;
11598;SDS011;5855;48.840;9.188;2024-01-16T08:05:52;7.55;;;2.42;;
11598;SDS011;5855;48.840;9.188;2024-01-16T08:08:19;5.07;;;2.30;;
11598;SDS011;5855;48.840;9.188;2024-01-16T08:10:46;3.37;;;2.50;;
11598;SDS011;5855;48.840;9.188;2024-01-16T08:13:13;2.90;;;2.23;;
11598;SDS011;5855;48.840;9.188;2024-01-16T08:15:39;3.17;;;2.33;;
11598;SDS011;5855;48.840;9.188;2024-01-16T08:18:06;3.47;;;2.30;;
11598;SDS011;5855;48.840;9.188;2024-01-16T08:20:33;4.25;;;2.30;;
11598;SDS011;5855;48.840;9.188;2024-01-16T08:23:00;4.07;;;2.27;;
11598;SDS011;5855;48.840;9.188;2024-01-16T08:25:27;3.17;;;2.30;;
11598;SDS011;5855;48.840;9.188;2024-01-16T08:27:54;3.22;;;2.33;;
11598;SDS011;5855;48.840;9.188;2024-01-16T08:30:21;3.95;;;2.42;;
11598;SDS011;5855;48.840;9.188;2024-01-16T08:32:47;2.42;;;2.22;;
11598;SDS011;5855;48.840;9.188;2024-01-16T08:35:14;4.40;;;2.45;;
11598;SDS011;5855;48.840;9.188;2024-01-16T08:37:41;3.60;;;2.70;;
11598;SDS011;5855;48.840;9.188;2024-01-16T08:40:10;2.75;;;2.35;;
11598;SDS011;5855;48.840;9.188;2024-01-16T08:42:37;3.28;;;2.67;;
11598;SDS011;5855;48.840;9.188;2024-01-16T08:45:04;4.03;;;2.63;;
11598;SDS011;5855;48.840;9.188;2024-01-16T08:47:32;3.88;;;2.38;;
11598;SDS011;5855;48.840;9.188;2024-01-16T08:49:58;3.28;;;2.50;;
11598;SDS011;5855;48.840;9.188;2024-01-16T08:52:25;5.03;;;2.92;;
11598;SDS011;5855;48.840;9.188;2024-01-16T08:54:52;5.22;;;2.72;;
11598;SDS011;5855;48.840;9.188;2024-01-16T08:57:20;5.05;;;2.70;;
11598;SDS011;5855;48.840;9.188;2024-01-16T08:59:47;4.25;;;2.90;;
11598;SDS011;5855;48.840;9.188;2024-01-16T09:02:14;3.13;;;2.42;;
11598;SDS011;5855;48.840;9.188;2024-01-16T09:04:41;4.95;;;2.60;;
11598;SDS011;5855;48.840;9.188;2024-01-16T09:07:08;3.60;;;2.63;;
11598;SDS011;5855;48.840;9.188;2024-01-16T09:09:34;3.47;;;2.47;;
11598;SDS011;5855;48.840;9.188;2024-01-16T09:12:01;4.88;;;2.47;;
11598;SDS011;5855;48.840;9.188;2024-01-16T09:14:30;2.80;;;2.38;;
11598;SDS011;5855;48.840;9.188;2024-01-16T09:16:56;4.95;;;2.38;;
11598;SDS011;5855;48.840;9.188;2024-01-16T09:19:23;3.83;;;2.40;;
11598;SDS011;5855;48.840;9.188;2024-01-16T09:21:50;4.00;;;2.85;;
11598;SDS011;5855;48.840;9.188;2024-01-16T09:24:17;5.72;;;3.30;;
11598;SDS011;5855;48.840;9.188;2024-01-16T09:26:45;4.50;;;3.05;;
11598;SDS011;5855;48.840;9.188;2024-01-16T09:29:11;4.88;;;3.13;;
11598;SDS011;5855;48.840;9.188;2024-01-16T09:31:41;3.58;;;2.55;;
11598;SDS011;5855;48.840;9.188;2024-01-16T09:34:08;4.07;;;2.70;;
11598;SDS011;5855;48.840;9.188;2024-01-16T09:36:38;4.80;;;2.92;;
11598;SDS011;5855;48.840;9.188;2024-01-16T09:39:05;5.45;;;2.45;;
11598;SDS011;5855;48.840;9.188;2024-01-16T09:41:33;7.85;;;3.13;;
11598;SDS011;5855;48.840;9.188;2024-01-16T09:44:00;5.90;;;2.72;;
11598;SDS011;5855;48.840;9.188;2024-01-16T09:46:27;4.75;;;2.75;;
11598;SDS011;5855;48.840;9.188;2024-01-16T09:48:59;4.18;;;2.63;;
11598;SDS011;5855;48.840;9.188;2024-01-16T09:51:27;6.47;;;2.90;;
11598;SDS011;5855;48.840;9.188;2024-01-16T09:53:54;3.28;;;2.63;;
11598;SDS011;5855;48.840;9.188;2024-01-16T09:56:21;6.07;;;2.88;;
11598;SDS011;5855;48.840;9.188;2024-01-16T09:58:49;5.68;;;3.00;;
11598;SDS011;5855;48.840;9.188;2024-01-16T10:01:20;4.13;;;2.50;;
11598;SDS011;5855;48.840;9.188;2024-01-16T10:03:49;3.20;;;2.67;;
11598;SDS011;5855;48.840;9.188;2024-01-16T10:06:17;5.97;;;2.40;;
11598;SDS011;5855;48.840;9.188;2024-01-16T10:08:47;3.65;;;2.53;;
11598;SDS011;5855;48.840;9.188;2024-01-16T10:11:14;5.15;;;2.50;;
11598;SDS011;5855;48.840;9.188;2024-01-16T10:13:41;2.78;;;2.30;;
11598;SDS011;5855;48.840;9.188;2024-01-16T10:16:10;4.22;;;2.85;;
11598;SDS011;5855;48.840;9.188;2024-01-16T10:18:37;5.57;;;2.70;;
11598;SDS011;5855;48.840;9.188;2024-01-16T10:21:04;8.63;;;2.75;;
11598;SDS011;5855;48.840;9.188;2024-01-16T10:23:35;6.35;;;2.72;;
11598;SDS011;5855;48.840;9.188;2024-01-16T10:26:07;4.43;;;2.80;;
11598;SDS011;5855;48.840;9.188;2024-01-16T10:28:40;5.65;;;2.75;;
11598;SDS011;5855;48.840;9.188;2024-01-16T10:31:08;5.57;;;2.97;;
11598;SDS011;5855;48.840;9.188;2024-01-16T10:33:35;3.85;;;2.60;;
11598;SDS011;5855;48.840;9.188;2024-01-16T10:36:11;3.15;;;2.58;;
11598;SDS011;5855;48.840;9.188;2024-01-16T10:38:45;4.20;;;2.85;;
11598;SDS011;5855;48.840;9.188;2024-01-16T10:41:22;5.43;;;2.75;;
11598;SDS011;5855;48.840;9.188;2024-01-16T10:43:51;4.88;;;2.50;;
11598;SDS011;5855;48.840;9.188;2024-01-16T10:46:31;4.43;;;2.55;;
11598;SDS011;5855;48.840;9.188;2024-01-16T10:48:59;3.30;;;2.60;;
11598;SDS011;5855;48.840;9.188;2024-01-16T10:51:27;5.45;;;2.60;;
11598;SDS011;5855;48.840;9.188;2024-01-16T10:53:57;6.22;;;2.97;;
11598;SDS011;5855;48.840;9.188;2024-01-16T10:56:26;6.28;;;2.70;;
11598;SDS011;5855;48.840;9.188;2024-01-16T10:58:55;5.90;;;2.85;;
11598;SDS011;5855;48.840;9.188;2024-01-16T11:01:27;4.40;;;2.90;;
11598;SDS011;5855;48.840;9.188;2024-01-16T11:03:55;4.70;;;2.70;;
11598;SDS011;5855;48.840;9.188;2024-01-16T11:06:24;5.38;;;3.10;;
11598;SDS011;5855;48.840;9.188;2024-01-16T11:08:52;4.90;;;3.00;;
11598;SDS011;5855;48.840;9.188;2024-01-16T11:11:21;4.93;;;2.90;;
11598;SDS011;5855;48.840;9.188;2024-01-16T11:13:50;5.78;;;3.00;;
11598;SDS011;5855;48.840;9.188;2024-01-16T11:16:17;6.70;;;3.10;;
11598;SDS011;5855;48.840;9.188;2024-01-16T11:18:46;6.90;;;2.72;;
11598;SDS011;5855;48.840;9.188;2024-01-16T11:21:13;6.20;;;2.85;;
11598;SDS011;5855;48.840;9.188;2024-01-16T11:23:41;3.88;;;2.53;;
11598;SDS011;5855;48.840;9.188;2024-01-16T11:26:27;5.57;;;2.80;;
11598;SDS011;5855;48.840;9.188;2024-01-16T11:28:57;4.95;;;2.67;;
11598;SDS011;5855;48.840;9.188;2024-01-16T11:31:28;5.28;;;2.28;;
11598;SDS011;5855;48.840;9.188;2024-01-16T11:33:56;5.15;;;3.10;;
11598;SDS011;5855;48.840;9.188;2024-01-16T11:39:20;5.82;;;2.67;;
11598;SDS011;5855;48.840;9.188;2024-01-16T11:41:52;5.00;;;2.53;;
11598;SDS011;5855;48.840;9.188;2024-01-16T11:44:35;6.57;;;2.80;;
11598;SDS011;5855;48.840;9.188;2024-01-16T11:47:03;7.97;;;3.08;;
11598;SDS011;5855;48.840;9.188;2024-01-16T11:49:31;5.22;;;2.72;;
11598;SDS011;5855;48.840;9.188;2024-01-16T11:51:57;5.05;;;2.30;;
11598;SDS011;5855;48.840;9.188;2024-01-16T11:54:23;5.57;;;2.90;;
11598;SDS011;5855;48.840;9.188;2024-01-16T11:59:59;6.22;;;2.85;;
11598;SDS011;5855;48.840;9.188;2024-01-16T12:02:53;4.55;;;2.35;;
11598;SDS011;5855;48.840;9.188;2024-01-16T12:05:22;6.22;;;2.58;;
11598;SDS011;5855;48.840;9.188;2024-01-16T12:07:49;4.93;;;2.50;;
11598;SDS011;5855;48.840;9.188;2024-01-16T12:10:17;4.85;;;2.42;;
11598;SDS011;5855;48.840;9.188;2024-01-16T12:12:45;4.15;;;2.28;;
11598;SDS011;5855;48.840;9.188;2024-01-16T12:15:15;3.25;;;2.10;;
11598;SDS011;5855;48.840;9.188;2024-01-16T12:17:52;6.63;;;2.42;;
11598;SDS011;5855;48.840;9.188;2024-01-16T12:20:20;3.85;;;2.45;;
11598;SDS011;5855;48.840;9.188;2024-01-16T12:22:57;6.03;;;2.40;;
11598;SDS011;5855;48.840;9.188;2024-01-16T12:25:25;6.30;;;2.78;;
11598;SDS011;5855;48.840;9.188;2024-01-16T12:27:56;2.83;;;2.05;;
11598;SDS011;5855;48.840;9.188;2024-01-16T12:30:25;4.75;;;2.33;;
11598;SDS011;5855;48.840;9.188;2024-01-16T12:33:03;4.13;;;2.47;;
11598;SDS011;5855;48.840;9.188;2024-01-16T12:35:32;3.72;;;2.60;;
11598;SDS011;5855;48.840;9.188;2024-01-16T12:37:59;4.25;;;2.47;;
11598;SDS011;5855;48.840;9.188;2024-01-16T12:40:27;7.20;;;2.20;;
11598;SDS011;5855;48.840;9.188;2024-01-16T12:42:54;5.00;;;2.50;;
11598;SDS011;5855;48.840;9.188;2024-01-16T12:45:20;6.13;;;2.47;;
11598;SDS011;5855;48.840;9.188;2024-01-16T12:47:52;5.03;;;1.90;;
11598;SDS011;5855;48.840;9.188;2024-01-16T12:50:20;3.72;;;2.30;;
11598;SDS011;5855;48.840;9.188;2024-01-16T12:52:47;4.13;;;2.30;;
11598;SDS011;5855;48.840;9.188;2024-01-16T12:55:15;4.00;;;2.35;;
11598;SDS011;5855;48.840;9.188;2024-01-16T12:57:43;5.13;;;2.40;;
11598;SDS011;5855;48.840;9.188;2024-01-16T13:00:22;3.45;;;2.20;;
11598;SDS011;5855;48.840;9.188;2024-01-16T13:02:50;2.60;;;1.70;;
11598;SDS011;5855;48.840;9.188;2024-01-16T13:05:23;1.77;;;1.30;;
11598;SDS011;5855;48.840;9.188;2024-01-16T13:07:59;3.30;;;1.60;;
11598;SDS011;5855;48.840;9.188;2024-01-16T13:10:28;3.40;;;1.50;;
11598;SDS011;5855;48.840;9.188;2024-01-16T13:13:10;3.88;;;1.88;;
11598;SDS011;5855;48.840;9.188;2024-01-16T13:15:38;2.67;;;1.40;;
11598;SDS011;5855;48.840;9.188;2024-01-16T13:18:08;5.05;;;1.70;;
11598;SDS011;5855;48.840;9.188;2024-01-16T13:20:44;3.67;;;1.40;;
11598;SDS011;5855;48.840;9.188;2024-01-16T13:23:12;3.95;;;1.70;;
11598;SDS011;5855;48.840;9.188;2024-01-16T13:25:41;3.50;;;1.50;;
11598;SDS011;5855;48.840;9.188;2024-01-16T13:28:09;3.45;;;1.50;;
11598;SDS011;5855;48.840;9.188;2024-01-16T13:30:37;5.63;;;1.80;;
11598;SDS011;5855;48.840;9.188;2024-01-16T13:33:04;2.10;;;1.40;;
11598;SDS011;5855;48.840;9.188;2024-01-16T13:35:34;2.53;;;1.40;;
11598;SDS011;5855;48.840;9.188;2024-01-16T13:38:02;3.08;;;1.48;;
11598;SDS011;5855;48.840;9.188;2024-01-16T13:40:30;2.95;;;1.65;;
11598;SDS011;5855;48.840;9.188;2024-01-16T13:42:57;4.20;;;1.60;;
11598;SDS011;5855;48.840;9.188;2024-01-16T13:45:25;2.53;;;1.40;;
11598;SDS011;5855;48.840;9.188;2024-01-16T13:47:52;4.30;;;1.80;;
11598;SDS011;5855;48.840;9.188;2024-01-16T13:50:19;2.35;;;1.60;;
11598;SDS011;5855;48.840;9.188;2024-01-16T13:52:47;5.40;;;1.55;;
11598;SDS011;5855;48.840;9.188;2024-01-16T13:55:14;4.15;;;1.50;;
11598;SDS011;5855;48.840;9.188;2024-01-16T13:57:41;2.30;;;1.30;;
11598;SDS011;5855;48.840;9.188;2024-01-16T14:00:08;3.15;;;1.80;;
11598;SDS011;5855;48.840;9.188;2024-01-16T14:02:38;6.85;;;1.85;;
11598;SDS011;5855;48.840;9.188;2024-01-16T14:05:06;3.75;;;1.58;;
11598;SDS011;5855;48.840;9.188;2024-01-16T14:07:35;3.03;;;1.60;;
11598;SDS011;5855;48.840;9.188;2024-01-16T14:10:04;3.80;;;2.33;;
11598;SDS011;5855;48.840;9.188;2024-01-16T14:12:32;3.33;;;2.08;;
11598;SDS011;5855;48.840;9.188;2024-01-16T14:15:00;6.13;;;2.10;;
11598;SDS011;5855;48.840;9.188;2024-01-16T14:17:29;7.28;;;2.50;;
11598;SDS011;5855;48.840;9.188;2024-01-16T14:19:56;3.90;;;2.40;;
11598;SDS011;5855;48.840;9.188;2024-01-16T14:22:24;7.13;;;2.50;;
11598;SDS011;5855;48.840;9.188;2024-01-16T14:24:51;8.38;;;2.10;;
11598;SDS011;5855;48.840;9.188;2024-01-16T14:27:20;4.85;;;2.40;;
11598;SDS011;5855;48.840;9.188;2024-01-16T14:29:46;2.90;;;2.20;;
11598;SDS011;5855;48.840;9.188;2024-01-16T14:32:14;6.57;;;2.20;;
11598;SDS011;5855;48.840;9.188;2024-01-16T14:34:41;5.88;;;2.38;;
11598;SDS011;5855;48.840;9.188;2024-01-16T14:37:08;5.38;;;2.45;;
11598;SDS011;5855;48.840;9.188;2024-01-16T14:39:36;4.38;;;2.13;;
11598;SDS011;5855;48.840;9.188;2024-01-16T14:42:04;4.07;;;2.10;;
11598;SDS011;5855;48.840;9.188;2024-01-16T14:44:33;3.05;;;1.85;;
11598;SDS011;5855;48.840;9.188;2024-01-16T14:47:00;3.35;;;1.85;;
11598;SDS011;5855;48.840;9.188;2024-01-16T14:49:29;3.15;;;2.00;;
11598;SDS011;5855;48.840;9.188;2024-01-16T14:51:57;4.05;;;1.90;;
11598;SDS011;5855;48.840;9.188;2024-01-16T14:54:24;5.03;;;2.00;;
11598;SDS011;5855;48.840;9.188;2024-01-16T14:56:51;5.18;;;2.22;;
11598;SDS011;5855;48.840;9.188;2024-01-16T14:59:18;4.60;;;2.40;;
11598;SDS011;5855;48.840;9.188;2024-01-16T15:01:46;5.00;;;2.38;;
11598;SDS011;5855;48.840;9.188;2024-01-16T15:04:12;4.57;;;2.28;;
11598;SDS011;5855;48.840;9.188;2024-01-16T15:06:39;3.88;;;2.20;;
11598;SDS011;5855;48.840;9.188;2024-01-16T15:09:06;3.58;;;2.20;;
11598;SDS011;5855;48.840;9.188;2024-01-16T15:11:35;4.25;;;2.40;;
11598;SDS011;5855;48.840;9.188;2024-01-16T15:14:02;4.78;;;2.35;;
11598;SDS011;5855;48.840;9.188;2024-01-16T15:16:29;4.20;;;2.10;;
11598;SDS011;5855;48.840;9.188;2024-01-16T15:18:57;5.13;;;2.28;;
11598;SDS011;5855;48.840;9.188;2024-01-16T15:21:24;7.40;;;2.40;;
11598;SDS011;5855;48.840;9.188;2024-01-16T15:23:51;3.50;;;2.35;;
11598;SDS011;5855;48.840;9.188;2024-01-16T15:26:18;3.85;;;2.53;;
11598;SDS011;5855;48.840;9.188;2024-01-16T15:28:45;4.88;;;2.42;;
11598;SDS011;5855;48.840;9.188;2024-01-16T15:31:12;5.38;;;2.75;;
11598;SDS011;5855;48.840;9.188;2024-01-16T15:33:39;4.65;;;2.42;;
11598;SDS011;5855;48.840;9.188;2024-01-16T15:36:07;4.43;;;2.20;;
11598;SDS011;5855;48.840;9.188;2024-01-16T15:38:34;4.47;;;2.20;;
11598;SDS011;5855;48.840;9.188;2024-01-16T15:41:01;6.82;;;2.30;;
11598;SDS011;5855;48.840;9.188;2024-01-16T15:43:28;6.75;;;2.17;;
11598;SDS011;5855;48.840;9.188;2024-01-16T15:45:55;5.07;;;1.88;;
11598;SDS011;5855;48.840;9.188;2024-01-16T15:48:22;6.68;;;2.50;;
11598;SDS011;5855;48.840;9.188;2024-01-16T15:50:49;6.10;;;2.78;;
11598;SDS011;5855;48.840;9.188;2024-01-16T15:53:17;8.43;;;2.92;;
11598;SDS011;5855;48.840;9.188;2024-01-16T15:55:44;6.03;;;3.05;;